createdAt,value
2023-01-19T00:02:13.208Z,13.57
2023-01-19T00:07:15.541Z,16.80
2023-01-19T00:12:17.393Z,15.23
2023-01-19T00:17:19.308Z,15.27
2023-01-19T00:22:21.302Z,15.57
2023-01-19T00:27:23.215Z,14.68
2023-01-19T00:32:25.173Z,15.77
2023-01-19T00:37:27.058Z,15.10
2023-01-19T00:42:28.962Z,14.90
2023-01-19T00:47:30.850Z,12.57
2023-01-19T00:52:32.781Z,15.13
2023-01-19T00:57:34.683Z,13.07
2023-01-19T01:02:36.786Z,12.47
2023-01-19T01:07:38.835Z,13.65
2023-01-19T01:12:40.888Z,15.87
2023-01-19T01:17:57.089Z,15.75
2023-01-19T01:22:59.257Z,15.03
2023-01-19T01:28:01.452Z,14.75
2023-01-19T01:33:03.560Z,14.03
2023-01-19T01:38:05.599Z,15.88
2023-01-19T01:43:14.580Z,14.43
2023-01-19T01:48:29.224Z,15.95
2023-01-19T01:53:31.399Z,14.70
2023-01-19T01:58:33.236Z,15.15
2023-01-19T02:03:35.088Z,15.60
2023-01-19T02:08:44.141Z,11.93
2023-01-19T02:13:46.047Z,13.75
2023-01-19T02:18:47.952Z,15.03
2023-01-19T02:23:56.611Z,15.87
2023-01-19T02:28:59.737Z,16.20
2023-01-19T02:34:01.976Z,13.57
2023-01-19T02:39:03.972Z,13.88
2023-01-19T02:44:07.007Z,14.97
2023-01-19T02:49:08.949Z,14.05
2023-01-19T02:54:32.585Z,14.90
2023-01-19T03:04:59.377Z,15.70
2023-01-19T03:10:41.427Z,14.38
2023-01-19T03:15:58.720Z,14.63
2023-01-19T03:21:02.229Z,13.73
2023-01-19T03:26:04.295Z,14.32
2023-01-19T03:31:12.610Z,14.52
2023-01-19T03:36:26.780Z,14.02
2023-01-19T03:41:28.788Z,15.30
2023-01-19T03:46:30.741Z,13.93
2023-01-19T03:51:36.247Z,14.50
2023-01-19T03:56:38.135Z,14.15
2023-01-19T04:01:40.068Z,13.53
2023-01-19T04:06:42.818Z,13.57
2023-01-19T04:16:47.490Z,12.32
2023-01-19T04:21:49.601Z,12.95
2023-01-19T04:26:52.115Z,12.57
2023-01-19T04:31:53.999Z,12.30
2023-01-19T04:36:55.857Z,11.83
2023-01-19T04:41:57.594Z,12.50
2023-01-19T04:46:59.346Z,12.57
2023-01-19T04:52:01.127Z,12.53
2023-01-19T04:57:02.891Z,11.00
2023-01-19T05:02:04.668Z,13.93
2023-01-19T05:07:06.434Z,13.60
2023-01-19T05:12:08.209Z,13.47
2023-01-19T05:17:10.200Z,14.03
2023-01-19T05:22:11.956Z,11.53
2023-01-19T05:27:13.723Z,14.50
2023-01-19T05:32:15.471Z,14.98
2023-01-19T05:37:17.230Z,14.77
2023-01-19T05:42:20.466Z,16.13
2023-01-19T05:47:22.200Z,14.33
2023-01-19T05:52:23.944Z,15.57
2023-01-19T05:57:25.663Z,15.20
2023-01-19T06:02:27.383Z,15.32
2023-01-19T06:07:29.325Z,13.97
2023-01-19T06:12:31.089Z,15.83
2023-01-19T06:17:33.310Z,14.83
2023-01-19T06:22:35.135Z,16.55
2023-01-19T06:27:36.855Z,16.40
2023-01-19T06:32:38.617Z,16.38
2023-01-19T06:37:40.764Z,16.83
2023-01-19T06:42:42.531Z,16.05
2023-01-19T06:47:44.895Z,16.00
2023-01-19T06:52:49.285Z,16.65
2023-01-19T06:57:58.241Z,17.55
2023-01-19T07:03:00.504Z,17.00
2023-01-19T07:08:02.574Z,17.77
2023-01-19T07:13:04.616Z,17.90
2023-01-19T07:18:06.691Z,16.92
2023-01-19T07:23:09.244Z,17.17
2023-01-19T07:28:11.015Z,17.98
2023-01-19T07:33:12.889Z,12.07
2023-01-19T07:38:15.183Z,17.97
2023-01-19T07:43:16.937Z,17.95
2023-01-19T07:48:18.709Z,13.43
2023-01-19T07:53:20.483Z,18.63
2023-01-19T07:58:25.507Z,12.95
2023-01-19T08:03:27.256Z,19.27
2023-01-19T08:08:33.001Z,18.20
2023-01-19T08:13:34.754Z,17.52
2023-01-19T08:18:36.868Z,18.70
2023-01-19T08:23:38.705Z,17.02
2023-01-19T08:28:40.476Z,15.52
2023-01-19T08:33:42.231Z,18.92
2023-01-19T08:38:47.448Z,17.65
2023-01-19T08:43:49.475Z,16.67
2023-01-19T08:48:51.207Z,16.93
2023-01-19T08:53:52.953Z,18.02
2023-01-19T08:59:08.199Z,16.98
2023-01-19T09:04:11.196Z,16.70
2023-01-19T09:09:12.933Z,16.77
2023-01-19T09:14:14.692Z,17.55
2023-01-19T09:19:16.475Z,19.10
2023-01-19T09:24:18.212Z,17.10
2023-01-19T09:29:20.064Z,18.13
2023-01-19T09:34:21.944Z,18.83
2023-01-19T09:39:23.661Z,18.80
2023-01-19T09:44:28.855Z,18.43
2023-01-19T09:49:36.428Z,18.95
2023-01-19T09:54:49.849Z,17.70
2023-01-19T09:59:51.736Z,18.25
2023-01-19T10:05:14.220Z,19.13
2023-01-19T10:10:22.712Z,19.52
2023-01-19T10:15:29.781Z,20.25
2023-01-19T10:20:35.370Z,18.83
2023-01-19T10:25:37.154Z,19.95
2023-01-19T10:30:38.979Z,19.17
2023-01-19T10:35:40.831Z,18.40
2023-01-19T10:40:53.571Z,20.97
2023-01-19T10:45:55.441Z,19.52
2023-01-19T10:51:03.839Z,20.70
2023-01-19T10:56:21.017Z,19.85
2023-01-19T11:01:24.917Z,20.30
2023-01-19T11:06:28.456Z,20.77
2023-01-19T11:11:31.869Z,22.10
2023-01-19T11:16:33.655Z,22.40
2023-01-19T11:21:35.419Z,22.20
2023-01-19T11:26:55.103Z,24.13
2023-01-19T11:32:09.197Z,23.38
2023-01-19T11:37:16.664Z,24.98
2023-01-19T11:42:18.791Z,24.80
2023-01-19T11:47:33.789Z,24.33
2023-01-19T11:52:53.988Z,25.95
2023-01-19T11:57:55.705Z,25.05
2023-01-19T12:03:08.145Z,23.98
2023-01-19T12:08:14.703Z,24.03
2023-01-19T12:13:24.583Z,25.60
2023-01-19T12:18:30.072Z,24.60
2023-01-19T12:24:07.779Z,25.75
2023-01-19T12:29:14.323Z,25.30
2023-01-19T12:34:25.296Z,24.98
2023-01-19T12:39:27.075Z,24.80
2023-01-19T12:44:29.367Z,24.27
2023-01-19T12:49:37.987Z,25.52
2023-01-19T12:54:56.928Z,24.75
2023-01-19T13:00:27.895Z,25.77
2023-01-19T13:05:33.130Z,24.85
2023-01-19T13:10:53.840Z,24.13
2023-01-19T13:15:56.178Z,25.42
2023-01-19T13:21:31.182Z,25.17
2023-01-19T13:26:40.676Z,26.45
2023-01-19T13:31:43.364Z,27.00
2023-01-19T13:41:47.483Z,26.08
2023-01-19T13:46:49.287Z,27.10
2023-01-19T13:52:06.287Z,27.83
2023-01-19T13:57:23.338Z,29.33
2023-01-19T14:02:25.296Z,28.77
2023-01-19T14:07:27.298Z,29.63
2023-01-19T14:12:29.118Z,20.90
2023-01-19T14:17:31.085Z,28.23
2023-01-19T14:22:42.997Z,21.00
2023-01-19T14:27:44.915Z,27.15
2023-01-19T14:32:46.685Z,29.30
2023-01-19T14:37:49.348Z,28.35
2023-01-19T14:42:58.360Z,29.00
2023-01-19T14:48:02.490Z,27.33
2023-01-19T14:53:14.889Z,26.42
2023-01-19T14:58:18.583Z,25.60
2023-01-19T15:03:20.380Z,25.60
2023-01-19T15:08:32.697Z,23.73
2023-01-19T15:13:34.627Z,23.87
2023-01-19T15:18:36.567Z,23.27
2023-01-19T15:23:38.392Z,24.43
2023-01-19T15:28:40.689Z,19.00
2023-01-19T15:33:42.741Z,24.17
2023-01-19T15:38:44.949Z,24.33
2023-01-19T15:43:46.871Z,21.15
2023-01-19T15:48:51.359Z,20.80
2023-01-19T15:53:53.485Z,19.85
2023-01-19T15:58:55.642Z,15.15
2023-01-19T16:04:01.811Z,20.25
2023-01-19T16:09:04.084Z,18.92
2023-01-19T16:14:05.935Z,14.07
2023-01-19T16:19:07.709Z,19.03
2023-01-19T16:24:09.579Z,18.13
2023-01-19T16:29:11.423Z,18.07
2023-01-19T16:34:13.377Z,14.27
2023-01-19T16:39:15.515Z,14.17
2023-01-19T16:44:17.437Z,18.92
2023-01-19T16:49:21.527Z,18.73
2023-01-19T16:54:24.131Z,18.05
2023-01-19T16:59:26.081Z,17.52
2023-01-19T17:04:28.128Z,18.17
2023-01-19T17:09:29.977Z,17.63
2023-01-19T17:14:31.859Z,18.73
2023-01-19T17:19:33.681Z,19.83
2023-01-19T17:24:35.524Z,18.87
2023-01-19T17:29:37.388Z,18.03
2023-01-19T17:34:39.364Z,19.70
2023-01-19T17:39:41.440Z,16.95
2023-01-19T17:44:43.288Z,12.80
2023-01-19T17:49:45.115Z,17.73
2023-01-19T17:54:47.024Z,13.73
2023-01-19T17:59:48.927Z,19.60
2023-01-19T18:04:51.717Z,19.90
2023-01-19T18:09:53.674Z,20.23
2023-01-19T18:14:55.499Z,20.43
2023-01-19T18:19:58.165Z,20.17
2023-01-19T18:30:01.695Z,23.27
2023-01-19T18:35:05.612Z,22.45
2023-01-19T18:40:08.116Z,22.00
2023-01-19T18:45:10.580Z,24.98
2023-01-19T18:50:12.799Z,28.05
2023-01-19T18:55:15.013Z,27.40
2023-01-19T19:00:17.981Z,29.80
2023-01-19T19:05:20.012Z,30.80
2023-01-19T19:10:21.975Z,32.03
2023-01-19T19:15:23.998Z,32.80
2023-01-19T19:20:26.145Z,31.10
2023-01-19T19:25:28.016Z,32.63
2023-01-19T19:30:29.913Z,30.90
2023-01-19T19:35:31.807Z,33.90
2023-01-19T19:40:33.790Z,23.40
2023-01-19T19:45:35.774Z,33.37
2023-01-19T19:50:37.876Z,33.10
2023-01-19T19:55:39.827Z,26.80
2023-01-19T20:00:41.717Z,34.73
2023-01-19T20:05:43.644Z,25.03
2023-01-19T20:10:45.521Z,31.07
2023-01-19T20:15:47.538Z,31.90
2023-01-19T20:20:49.360Z,31.80
2023-01-19T20:25:51.344Z,31.20
2023-01-19T20:30:53.331Z,30.00
2023-01-19T20:35:55.273Z,20.80
2023-01-19T20:40:57.209Z,26.90
2023-01-19T20:45:59.219Z,29.43
2023-01-19T20:51:02.705Z,21.98
2023-01-19T20:56:10.309Z,29.88
2023-01-19T21:01:19.828Z,29.25
2023-01-19T21:06:21.976Z,28.92
2023-01-19T21:11:23.954Z,30.03
2023-01-19T21:16:26.852Z,33.25
2023-01-19T21:21:31.481Z,33.83
2023-01-19T21:26:33.854Z,33.65
2023-01-19T21:31:35.733Z,35.80
2023-01-19T21:36:37.669Z,32.97
2023-01-19T21:41:39.560Z,37.07
2023-01-19T21:46:41.420Z,35.27
2023-01-19T21:51:43.373Z,36.83
2023-01-19T21:56:45.303Z,36.73
2023-01-19T22:01:47.225Z,36.33
2023-01-19T22:06:49.353Z,23.95
2023-01-19T22:11:51.295Z,28.15
2023-01-19T22:16:53.340Z,35.53
2023-01-19T22:21:55.283Z,36.55
2023-01-19T22:26:57.227Z,36.67
2023-01-19T22:31:59.063Z,35.87
2023-01-19T22:37:01.064Z,34.87
2023-01-19T22:42:03.029Z,24.77
2023-01-19T22:47:05.004Z,34.77
2023-01-19T22:52:06.906Z,33.33
2023-01-19T22:57:08.848Z,34.47
2023-01-19T23:02:10.768Z,35.43
2023-01-19T23:07:12.687Z,33.03
2023-01-19T23:12:14.539Z,32.33
2023-01-19T23:17:16.361Z,32.30
2023-01-19T23:22:18.270Z,34.47
2023-01-19T23:27:20.220Z,27.37
2023-01-19T23:32:22.163Z,33.03
2023-01-19T23:37:24.023Z,32.67
2023-01-19T23:42:25.837Z,33.83
2023-01-19T23:47:27.717Z,33.43
2023-01-19T23:52:29.606Z,32.83
2023-01-19T23:57:31.454Z,33.50
